createdAt,value
2022-09-10T00:01:27.758Z,15.80
2022-09-10T00:03:56.006Z,15.80
2022-09-10T00:06:27.421Z,15.70
2022-09-10T00:08:58.304Z,15.70
2022-09-10T00:11:31.612Z,15.70
2022-09-10T00:13:59.959Z,15.60
2022-09-10T00:16:28.722Z,15.60
2022-09-10T00:18:57.441Z,15.70
2022-09-10T00:21:25.695Z,15.70
2022-09-10T00:23:54.361Z,15.80
2022-09-10T00:26:26.660Z,15.90
2022-09-10T00:28:56.469Z,16.00
2022-09-10T00:31:25.269Z,16.00
2022-09-10T00:33:54.868Z,15.80
2022-09-10T00:36:24.753Z,15.90
2022-09-10T00:38:54.843Z,15.90
2022-09-10T00:41:25.881Z,16.00
2022-09-10T00:43:56.237Z,16.00
2022-09-10T00:46:29.973Z,16.00
2022-09-10T00:49:01.991Z,15.90
2022-09-10T00:51:34.319Z,15.70
2022-09-10T00:54:03.850Z,15.50
2022-09-10T00:56:34.729Z,15.40
2022-09-10T00:59:04.658Z,15.30
2022-09-10T01:01:33.594Z,15.30
2022-09-10T01:04:02.561Z,15.30
2022-09-10T01:06:30.954Z,15.40
2022-09-10T01:08:59.657Z,15.60
2022-09-10T01:11:43.513Z,15.70
2022-09-10T01:14:32.366Z,15.70
2022-09-10T01:17:10.122Z,15.80
2022-09-10T01:20:16.788Z,15.70
2022-09-10T01:23:07.667Z,15.60
2022-09-10T01:25:48.397Z,15.40
2022-09-10T01:28:24.196Z,15.40
2022-09-10T01:30:59.078Z,15.40
2022-09-10T01:33:32.366Z,15.50
2022-09-10T01:36:02.883Z,15.40
2022-09-10T01:38:35.501Z,15.40
2022-09-10T01:41:03.553Z,15.30
2022-09-10T01:43:33.272Z,15.20
2022-09-10T01:46:15.672Z,15.20
2022-09-10T01:49:14.666Z,15.20
2022-09-10T01:51:59.091Z,15.10
2022-09-10T01:54:39.248Z,15.20
2022-09-10T01:57:12.794Z,15.00
2022-09-10T01:59:50.830Z,14.90
2022-09-10T02:02:23.903Z,14.80
2022-09-10T02:04:53.305Z,14.80
2022-09-10T02:07:24.556Z,14.70
2022-09-10T02:09:54.754Z,14.70
2022-09-10T02:12:23.676Z,14.70
2022-09-10T02:14:55.471Z,14.60
2022-09-10T02:17:26.966Z,14.40
2022-09-10T02:19:55.689Z,14.50
2022-09-10T02:22:24.289Z,14.40
2022-09-10T02:24:52.851Z,14.40
2022-09-10T02:27:20.941Z,14.30
2022-09-10T02:29:49.413Z,14.30
2022-09-10T02:32:18.818Z,14.40
2022-09-10T02:34:46.771Z,14.40
2022-09-10T02:37:15.958Z,14.60
2022-09-10T02:39:44.926Z,14.80
2022-09-10T02:42:17.542Z,15.00
2022-09-10T02:44:48.032Z,15.00
2022-09-10T02:47:15.943Z,14.90
2022-09-10T02:49:45.880Z,14.90
2022-09-10T02:52:13.942Z,15.10
2022-09-10T02:54:42.047Z,15.10
2022-09-10T02:57:10.383Z,15.00
2022-09-10T02:59:38.382Z,15.20
2022-09-10T03:02:06.481Z,15.20
2022-09-10T03:04:34.714Z,15.20
2022-09-10T03:07:04.272Z,15.20
2022-09-10T03:09:32.180Z,15.20
2022-09-10T03:12:00.579Z,15.10
2022-09-10T03:14:30.299Z,15.10
2022-09-10T03:16:58.311Z,15.20
2022-09-10T03:19:26.696Z,15.20
2022-09-10T03:21:54.749Z,15.20
2022-09-10T03:24:25.236Z,15.20
2022-09-10T03:26:53.197Z,15.20
2022-09-10T03:29:22.887Z,15.20
2022-09-10T03:31:51.607Z,15.30
2022-09-10T03:34:20.433Z,15.30
2022-09-10T03:36:48.422Z,15.40
2022-09-10T03:39:18.393Z,15.30
2022-09-10T03:41:48.126Z,15.20
2022-09-10T03:44:17.199Z,15.20
2022-09-10T03:46:45.584Z,15.20
2022-09-10T03:49:13.766Z,15.10
2022-09-10T03:51:41.769Z,15.20
2022-09-10T03:54:10.122Z,15.30
2022-09-10T03:56:38.109Z,15.20
2022-09-10T03:59:07.736Z,15.10
2022-09-10T04:01:35.651Z,15.10
2022-09-10T04:04:03.896Z,15.10
2022-09-10T04:06:33.248Z,15.10
2022-09-10T04:09:01.268Z,15.10
2022-09-10T04:11:29.300Z,15.10
2022-09-10T04:13:57.621Z,15.10
2022-09-10T04:16:27.429Z,14.90
2022-09-10T04:18:55.654Z,14.80
2022-09-10T04:21:24.616Z,14.80
2022-09-10T04:23:55.644Z,14.70
2022-09-10T04:26:24.142Z,14.70
2022-09-10T04:28:52.523Z,14.70
2022-09-10T04:31:20.947Z,14.60
2022-09-10T04:33:50.676Z,14.70
2022-09-10T04:36:19.196Z,14.80
2022-09-10T04:38:47.198Z,14.80
2022-09-10T04:41:18.251Z,14.80
2022-09-10T04:43:46.638Z,14.80
2022-09-10T04:46:14.715Z,14.90
2022-09-10T04:48:42.762Z,15.00
2022-09-10T04:51:17.786Z,15.00
2022-09-10T04:53:46.470Z,15.00
2022-09-10T04:56:14.907Z,14.90
2022-09-10T04:58:44.062Z,14.90
2022-09-10T05:01:12.381Z,14.80
2022-09-10T05:03:40.520Z,14.80
2022-09-10T05:06:08.662Z,14.70
2022-09-10T05:08:38.026Z,14.70
2022-09-10T05:11:06.293Z,14.70
2022-09-10T05:13:34.297Z,14.80
2022-09-10T05:16:02.642Z,14.80
2022-09-10T05:18:30.745Z,15.00
2022-09-10T05:20:58.846Z,15.00
2022-09-10T05:23:27.363Z,15.10
2022-09-10T05:25:57.176Z,15.10
2022-09-10T05:28:25.741Z,15.20
2022-09-10T05:30:53.715Z,15.20
2022-09-10T05:33:22.048Z,15.10
2022-09-10T05:35:52.005Z,15.00
2022-09-10T05:38:20.437Z,15.00
2022-09-10T05:40:48.814Z,15.10
2022-09-10T05:43:18.203Z,15.00
2022-09-10T05:45:47.201Z,15.00
2022-09-10T05:48:15.347Z,14.90
2022-09-10T05:50:45.418Z,14.90
2022-09-10T05:53:13.738Z,14.90
2022-09-10T05:55:41.824Z,15.00
2022-09-10T05:58:09.764Z,14.90
2022-09-10T06:00:39.119Z,14.90
2022-09-10T06:03:07.751Z,14.80
2022-09-10T06:05:35.877Z,14.80
2022-09-10T06:08:08.540Z,14.80
2022-09-10T06:10:37.236Z,14.80
2022-09-10T06:13:05.871Z,14.80
2022-09-10T06:15:36.044Z,14.90
2022-09-10T06:18:05.462Z,14.90
2022-09-10T06:20:33.373Z,14.90
2022-09-10T06:23:01.537Z,14.90
2022-09-10T06:25:29.589Z,14.90
2022-09-10T06:27:57.572Z,15.00
2022-09-10T06:30:26.114Z,15.00
2022-09-10T06:32:54.216Z,15.10
2022-09-10T06:35:23.630Z,15.20
2022-09-10T06:37:51.676Z,15.30
2022-09-10T06:40:19.651Z,15.30
2022-09-10T06:42:48.449Z,15.30
2022-09-10T06:45:16.505Z,15.40
2022-09-10T06:50:33.977Z,15.30
2022-09-10T06:53:01.897Z,15.30
2022-09-10T06:55:29.881Z,15.30
2022-09-10T06:58:00.492Z,15.30
2022-09-10T07:00:28.478Z,15.30
2022-09-10T07:02:56.449Z,15.40
2022-09-10T07:05:24.417Z,15.30
2022-09-10T07:07:55.374Z,15.30
2022-09-10T07:10:23.403Z,15.30
2022-09-10T07:12:51.564Z,15.40
2022-09-10T07:15:19.509Z,15.40
2022-09-10T07:17:47.400Z,15.50
2022-09-10T07:20:15.776Z,15.60
2022-09-10T07:22:44.165Z,15.70
2022-09-10T07:25:13.528Z,15.80
2022-09-10T07:27:41.510Z,15.80
2022-09-10T07:30:10.547Z,15.90
2022-09-10T07:32:41.402Z,15.90
2022-09-10T07:35:09.689Z,15.90
2022-09-10T07:37:39.121Z,15.80
2022-09-10T07:40:08.800Z,15.70
2022-09-10T07:42:38.344Z,15.70
2022-09-10T07:45:07.131Z,15.70
2022-09-10T07:47:35.061Z,15.80
2022-09-10T07:50:03.237Z,16.10
2022-09-10T07:52:31.335Z,16.20
2022-09-10T07:54:59.281Z,16.20
2022-09-10T07:57:27.784Z,16.20
2022-09-10T07:59:57.201Z,16.20
2022-09-10T08:02:25.796Z,16.40
2022-09-10T08:04:53.894Z,16.40
2022-09-10T08:07:21.997Z,16.40
2022-09-10T08:09:49.946Z,16.50
2022-09-10T08:12:17.996Z,16.60
2022-09-10T08:14:45.944Z,16.60
2022-09-10T08:17:15.261Z,16.50
2022-09-10T08:19:43.158Z,16.60
2022-09-10T08:22:13.602Z,16.60
2022-09-10T08:24:41.608Z,16.70
2022-09-10T08:27:11.496Z,16.80
2022-09-10T08:29:39.573Z,17.00
2022-09-10T08:32:07.681Z,17.10
2022-09-10T08:34:37.166Z,17.10
2022-09-10T08:37:05.261Z,17.10
2022-09-10T08:39:33.541Z,17.20
2022-09-10T08:42:06.377Z,17.10
2022-09-10T08:44:43.777Z,17.00
2022-09-10T08:47:30.992Z,17.10
2022-09-10T08:50:03.513Z,17.20
2022-09-10T08:52:38.983Z,17.30
2022-09-10T08:55:19.999Z,17.40
2022-09-10T08:57:51.075Z,17.50
2022-09-10T09:00:22.985Z,17.60
2022-09-10T09:02:57.735Z,17.60
2022-09-10T09:05:28.180Z,17.60
2022-09-10T09:07:59.533Z,17.60
2022-09-10T09:10:42.674Z,17.50
2022-09-10T09:13:49.320Z,17.50
2022-09-10T09:16:39.341Z,17.50
2022-09-10T09:19:15.557Z,17.60
2022-09-10T09:21:51.970Z,17.80
2022-09-10T09:24:24.692Z,17.80
2022-09-10T09:27:00.183Z,17.80
2022-09-10T09:29:32.170Z,17.60
2022-09-10T09:32:04.132Z,17.60
2022-09-10T09:34:37.052Z,17.50
2022-09-10T09:37:15.024Z,17.60
2022-09-10T09:39:48.525Z,17.60
2022-09-10T09:42:22.594Z,17.60
2022-09-10T09:44:57.343Z,17.70
2022-09-10T09:47:25.426Z,17.80
2022-09-10T09:49:54.234Z,17.90
2022-09-10T09:52:25.614Z,18.00
2022-09-10T09:55:13.723Z,18.00
2022-09-10T09:57:43.668Z,18.00
2022-09-10T10:00:36.115Z,17.90
2022-09-10T10:03:18.297Z,17.80
2022-09-10T10:05:46.780Z,17.80
2022-09-10T10:08:30.140Z,17.60
2022-09-10T10:10:59.103Z,17.50
2022-09-10T10:13:37.354Z,17.60
2022-09-10T10:16:16.615Z,17.60
2022-09-10T10:18:45.209Z,17.60
2022-09-10T10:21:16.486Z,17.60
2022-09-10T10:23:46.218Z,17.70
2022-09-10T10:26:30.306Z,17.70
2022-09-10T10:29:01.627Z,17.70
2022-09-10T10:31:40.229Z,17.70
2022-09-10T10:34:32.403Z,17.70
2022-09-10T10:37:08.521Z,17.80
2022-09-10T10:40:01.962Z,17.80
2022-09-10T10:42:35.351Z,17.80
2022-09-10T10:45:35.426Z,18.00
2022-09-10T10:48:10.003Z,17.90
2022-09-10T10:50:52.814Z,18.00
2022-09-10T10:53:36.155Z,17.90
2022-09-10T10:56:14.692Z,18.00
2022-09-10T10:59:09.510Z,18.00
2022-09-10T11:01:42.208Z,17.90
2022-09-10T11:04:24.637Z,17.90
2022-09-10T11:06:59.949Z,17.90
2022-09-10T11:09:32.574Z,17.90
2022-09-10T11:12:02.874Z,17.90
2022-09-10T11:14:37.027Z,17.90
2022-09-10T11:17:11.043Z,18.00
2022-09-10T11:19:44.023Z,18.00
2022-09-10T11:22:16.351Z,18.10
2022-09-10T11:24:48.438Z,18.10
2022-09-10T11:27:21.834Z,18.30
2022-09-10T11:29:55.973Z,18.50
2022-09-10T11:32:30.591Z,18.50
2022-09-10T11:35:12.327Z,18.60
2022-09-10T11:37:54.568Z,18.60
2022-09-10T11:40:30.143Z,18.60
2022-09-10T11:43:03.865Z,18.60
2022-09-10T11:45:40.584Z,18.60
2022-09-10T11:48:14.589Z,18.60
2022-09-10T11:50:49.737Z,18.60
2022-09-10T11:53:20.689Z,18.50
2022-09-10T11:56:14.030Z,18.30
2022-09-10T11:58:52.087Z,18.10
2022-09-10T12:01:32.736Z,18.10
2022-09-10T12:04:45.715Z,18.10
2022-09-10T12:07:28.217Z,18.00
2022-09-10T12:10:13.525Z,18.00
2022-09-10T12:12:50.318Z,18.20
2022-09-10T12:15:39.845Z,18.20
2022-09-10T12:18:20.462Z,18.40
2022-09-10T12:21:01.468Z,18.40
2022-09-10T12:23:32.077Z,18.30
2022-09-10T12:26:13.024Z,18.30
2022-09-10T12:29:31.797Z,18.50
2022-09-10T12:32:29.818Z,18.70
2022-09-10T12:35:46.670Z,18.70
2022-09-10T12:38:56.606Z,18.70
2022-09-10T12:42:06.501Z,18.70
2022-09-10T12:44:52.593Z,18.50
2022-09-10T12:47:56.764Z,18.50
2022-09-10T12:50:46.385Z,18.50
2022-09-10T12:54:04.822Z,18.50
2022-09-10T12:57:00.670Z,18.50
2022-09-10T13:00:01.932Z,18.80
2022-09-10T13:02:36.663Z,19.10
2022-09-10T13:05:07.666Z,19.10
2022-09-10T13:07:44.318Z,19.10
2022-09-10T13:10:33.514Z,19.10
2022-09-10T13:13:07.780Z,18.90
2022-09-10T13:15:51.913Z,19.00
2022-09-10T13:18:36.964Z,19.00
2022-09-10T13:21:41.729Z,18.90
2022-09-10T13:24:38.770Z,18.90
2022-09-10T13:27:21.679Z,18.70
2022-09-10T13:29:53.025Z,18.40
2022-09-10T13:32:30.451Z,18.30
2022-09-10T13:35:47.469Z,18.20
2022-09-10T13:38:34.081Z,18.20
2022-09-10T13:41:33.768Z,18.40
2022-09-10T13:44:21.553Z,18.50
2022-09-10T13:46:52.017Z,18.50
2022-09-10T13:49:26.309Z,18.50
2022-09-10T13:51:57.653Z,18.50
2022-09-10T13:54:34.473Z,18.40
2022-09-10T13:57:10.076Z,18.40
2022-09-10T13:59:38.532Z,18.40
2022-09-10T14:02:06.609Z,18.40
2022-09-10T14:04:39.910Z,18.20
2022-09-10T14:07:15.854Z,18.30
2022-09-10T14:09:44.028Z,18.40
2022-09-10T14:12:13.995Z,18.50
2022-09-10T14:14:46.119Z,18.50
2022-09-10T14:17:20.121Z,18.50
2022-09-10T14:19:52.040Z,18.50
2022-09-10T14:22:25.734Z,18.50
2022-09-10T14:24:55.563Z,18.50
2022-09-10T14:27:26.530Z,18.40
2022-09-10T14:29:56.235Z,18.50
2022-09-10T14:32:32.704Z,18.60
2022-09-10T14:35:03.597Z,18.70
2022-09-10T14:37:38.864Z,18.70
2022-09-10T14:40:17.804Z,18.60
2022-09-10T14:42:46.351Z,18.60
2022-09-10T14:45:40.433Z,18.60
2022-09-10T14:48:35.515Z,18.50
2022-09-10T14:51:14.754Z,18.40
2022-09-10T14:53:45.036Z,18.30
2022-09-10T14:56:24.101Z,18.00
2022-09-10T14:58:58.533Z,18.00
2022-09-10T15:01:26.991Z,17.80
2022-09-10T15:03:55.199Z,17.40
2022-09-10T15:06:26.407Z,17.00
2022-09-10T15:08:57.158Z,16.80
2022-09-10T15:11:27.406Z,16.70
2022-09-10T15:13:58.771Z,16.70
2022-09-10T15:16:27.526Z,16.70
2022-09-10T15:18:55.553Z,16.70
2022-09-10T15:21:23.735Z,16.30
2022-09-10T15:23:51.882Z,16.40
2022-09-10T15:26:21.356Z,16.40
2022-09-10T15:28:49.371Z,16.50
2022-09-10T15:31:18.351Z,16.70
2022-09-10T15:33:46.414Z,16.90
2022-09-10T15:36:14.718Z,17.10
2022-09-10T15:38:42.642Z,17.30
2022-09-10T15:41:13.230Z,17.40
2022-09-10T15:43:44.231Z,17.40
2022-09-10T15:46:13.188Z,17.30
2022-09-10T15:48:41.316Z,17.30
2022-09-10T15:51:16.349Z,17.30
2022-09-10T15:53:46.018Z,17.20
2022-09-10T15:56:14.441Z,17.20
2022-09-10T15:58:49.486Z,17.20
2022-09-10T16:01:17.554Z,17.20
2022-09-10T16:03:47.183Z,17.20
2022-09-10T16:06:15.802Z,17.30
2022-09-10T16:08:48.476Z,17.30
2022-09-10T16:11:16.796Z,17.40
2022-09-10T16:13:46.595Z,17.50
2022-09-10T16:16:19.835Z,17.50
2022-09-10T16:18:48.206Z,17.50
2022-09-10T16:21:18.479Z,17.40
2022-09-10T16:23:48.079Z,17.40
2022-09-10T16:26:19.953Z,17.30
2022-09-10T16:28:51.681Z,17.30
2022-09-10T16:31:22.451Z,17.30
2022-09-10T16:33:54.630Z,17.20
2022-09-10T16:36:23.412Z,17.20
2022-09-10T16:38:54.174Z,17.10
2022-09-10T16:41:23.247Z,17.00
2022-09-10T16:43:53.050Z,17.00
2022-09-10T16:46:21.084Z,16.90
2022-09-10T16:48:53.009Z,16.90
2022-09-10T16:51:23.202Z,16.80
2022-09-10T16:53:55.745Z,16.80
2022-09-10T16:56:25.057Z,16.80
2022-09-10T16:58:54.402Z,16.80
2022-09-10T17:01:22.408Z,16.80
2022-09-10T17:03:51.904Z,16.70
2022-09-10T17:06:21.681Z,16.70
2022-09-10T17:08:50.125Z,16.70
2022-09-10T17:11:19.588Z,16.60
2022-09-10T17:13:48.157Z,16.60
2022-09-10T17:16:24.771Z,16.60
2022-09-10T17:18:57.778Z,16.60
2022-09-10T17:21:26.486Z,16.60
2022-09-10T17:23:55.026Z,16.60
2022-09-10T17:26:24.288Z,16.60
2022-09-10T17:28:56.447Z,16.60
2022-09-10T17:31:27.417Z,16.60
2022-09-10T17:33:56.657Z,16.50
2022-09-10T17:36:26.357Z,16.50
2022-09-10T17:38:56.181Z,16.50
2022-09-10T17:41:24.994Z,16.40
2022-09-10T17:43:53.141Z,16.40
2022-09-10T17:46:23.295Z,16.40
2022-09-10T17:48:53.465Z,16.40
2022-09-10T17:51:24.170Z,16.30
2022-09-10T17:53:52.912Z,16.20
2022-09-10T17:56:21.258Z,16.20
2022-09-10T17:58:49.682Z,16.10
2022-09-10T18:01:23.363Z,16.00
2022-09-10T18:03:53.527Z,16.00
2022-09-10T18:06:22.477Z,15.90
2022-09-10T18:08:50.357Z,15.90
2022-09-10T18:11:20.176Z,15.90
2022-09-10T18:13:51.602Z,15.80
2022-09-10T18:16:21.505Z,15.80
2022-09-10T18:18:55.417Z,15.80
2022-09-10T18:21:25.192Z,15.80
2022-09-10T18:23:54.391Z,15.80
2022-09-10T18:26:23.755Z,15.80
2022-09-10T18:28:57.110Z,15.90
2022-09-10T18:31:25.732Z,15.90
2022-09-10T18:33:55.853Z,15.90
2022-09-10T18:36:25.525Z,15.90
2022-09-10T18:38:53.777Z,15.90
2022-09-10T18:41:24.205Z,15.90
2022-09-10T18:43:53.869Z,15.80
2022-09-10T18:46:23.447Z,15.90
2022-09-10T18:48:52.146Z,15.90
2022-09-10T18:51:24.277Z,15.90
2022-09-10T18:53:54.730Z,15.90
2022-09-10T18:56:25.375Z,15.90
2022-09-10T18:58:55.685Z,15.90
2022-09-10T19:01:24.897Z,15.90
2022-09-10T19:03:53.030Z,15.90
2022-09-10T19:06:24.200Z,16.00
2022-09-10T19:08:53.638Z,16.00
2022-09-10T19:11:22.561Z,16.10
2022-09-10T19:13:51.920Z,16.00
2022-09-10T19:16:21.004Z,16.00
2022-09-10T19:18:50.932Z,16.00
2022-09-10T19:21:20.180Z,16.00
2022-09-10T19:23:50.515Z,16.00
2022-09-10T19:26:20.283Z,16.00
2022-09-10T19:28:50.425Z,15.90
2022-09-10T19:31:20.591Z,15.90
2022-09-10T19:33:56.368Z,15.90
2022-09-10T19:36:27.387Z,15.80
2022-09-10T19:38:56.902Z,15.80
2022-09-10T19:41:26.272Z,15.80
2022-09-10T19:43:57.238Z,15.80
2022-09-10T19:46:28.193Z,15.80
2022-09-10T19:48:59.402Z,15.70
2022-09-10T19:51:28.918Z,15.60
2022-09-10T19:54:00.195Z,15.60
2022-09-10T19:56:31.188Z,15.50
2022-09-10T19:58:59.829Z,15.50
2022-09-10T20:01:31.165Z,15.50
2022-09-10T20:04:01.000Z,15.50
2022-09-10T20:06:31.324Z,15.40
2022-09-10T20:09:00.760Z,15.40
2022-09-10T20:11:31.355Z,15.40
2022-09-10T20:14:01.376Z,15.40
2022-09-10T20:16:29.916Z,15.40
2022-09-10T20:18:58.273Z,15.60
2022-09-10T20:21:31.591Z,15.60
2022-09-10T20:24:00.883Z,15.70
2022-09-10T20:26:30.725Z,15.70
2022-09-10T20:29:00.651Z,15.80
2022-09-10T20:31:31.221Z,15.90
2022-09-10T20:34:01.082Z,16.00
2022-09-10T20:36:31.238Z,16.10
2022-09-10T20:39:00.494Z,16.10
2022-09-10T20:41:30.093Z,16.20
2022-09-10T20:44:00.045Z,16.30
2022-09-10T20:46:29.520Z,16.30
2022-09-10T20:49:02.708Z,16.30
2022-09-10T20:51:34.225Z,16.30
2022-09-10T20:54:04.711Z,16.30
2022-09-10T20:56:33.233Z,16.40
2022-09-10T20:59:01.923Z,16.30
2022-09-10T21:01:32.053Z,16.30
2022-09-10T21:04:04.071Z,16.30
2022-09-10T21:06:33.492Z,16.30
2022-09-10T21:09:04.047Z,16.30
2022-09-10T21:11:33.638Z,16.40
2022-09-10T21:14:03.092Z,16.20
2022-09-10T21:16:32.921Z,16.30
2022-09-10T21:19:03.130Z,16.30
2022-09-10T21:21:34.020Z,16.30
2022-09-10T21:24:05.178Z,16.40
2022-09-10T21:26:35.631Z,16.40
2022-09-10T21:29:05.406Z,16.40
2022-09-10T21:31:33.409Z,16.40
2022-09-10T21:34:03.496Z,16.40
2022-09-10T21:36:34.571Z,16.20
2022-09-10T21:39:06.416Z,16.20
2022-09-10T21:41:35.735Z,16.20
2022-09-10T21:44:06.102Z,16.10
2022-09-10T21:46:34.365Z,16.00
2022-09-10T21:49:03.374Z,16.10
2022-09-10T21:51:32.351Z,16.10
2022-09-10T21:54:00.220Z,16.10
2022-09-10T21:56:29.928Z,16.10
2022-09-10T21:59:00.106Z,16.10
2022-09-10T22:01:30.007Z,16.20
2022-09-10T22:04:00.358Z,16.30
2022-09-10T22:06:30.002Z,16.30
2022-09-10T22:08:59.291Z,16.20
2022-09-10T22:11:30.782Z,16.30
2022-09-10T22:14:00.978Z,16.10
2022-09-10T22:16:30.973Z,16.10
2022-09-10T22:19:00.589Z,16.00
2022-09-10T22:21:29.063Z,16.00
2022-09-10T22:23:57.320Z,16.00
2022-09-10T22:26:28.120Z,15.90
2022-09-10T22:28:59.413Z,15.90
2022-09-10T22:31:29.435Z,15.90
2022-09-10T22:33:59.096Z,15.90
2022-09-10T22:36:31.359Z,15.80
2022-09-10T22:39:01.332Z,15.80
2022-09-10T22:41:31.501Z,15.80
2022-09-10T22:44:01.019Z,15.90
2022-09-10T22:46:29.683Z,15.80
2022-09-10T22:48:58.317Z,15.80
2022-09-10T22:51:27.874Z,15.90
2022-09-10T22:53:57.632Z,15.90
2022-09-10T22:56:27.155Z,15.90
2022-09-10T22:58:56.795Z,15.70
2022-09-10T23:01:28.405Z,15.70
2022-09-10T23:03:57.326Z,15.70
2022-09-10T23:06:28.357Z,15.60
2022-09-10T23:08:59.057Z,15.70
2022-09-10T23:11:29.011Z,15.60
2022-09-10T23:13:59.145Z,15.60
2022-09-10T23:16:31.711Z,15.50
2022-09-10T23:19:00.972Z,15.50
2022-09-10T23:21:30.345Z,15.60
2022-09-10T23:24:00.157Z,15.60
2022-09-10T23:26:28.984Z,15.50
2022-09-10T23:28:58.325Z,15.60
2022-09-10T23:31:29.364Z,15.60
2022-09-10T23:33:59.178Z,15.60
2022-09-10T23:36:28.162Z,15.70
2022-09-10T23:38:56.063Z,15.70
2022-09-10T23:41:24.161Z,15.60
2022-09-10T23:43:52.327Z,15.70
2022-09-10T23:46:20.502Z,15.70
2022-09-10T23:48:50.010Z,15.50
2022-09-10T23:51:19.982Z,15.50
2022-09-10T23:53:48.729Z,15.60
2022-09-10T23:56:18.753Z,15.60
2022-09-10T23:58:47.697Z,15.60
